createdAt,value
2022-10-21T00:01:00.912Z,8.23
2022-10-21T00:03:29.063Z,10.90
2022-10-21T00:05:57.250Z,8.80
2022-10-21T00:08:25.806Z,7.97
2022-10-21T00:10:54.886Z,9.00
2022-10-21T00:13:25.950Z,10.27
2022-10-21T00:16:01.634Z,13.83
2022-10-21T00:18:30.259Z,13.50
2022-10-21T00:20:58.347Z,7.03
2022-10-21T00:23:26.413Z,9.10
2022-10-21T00:25:57.630Z,7.80
2022-10-21T00:28:27.102Z,10.30
2022-10-21T00:30:57.189Z,7.93
2022-10-21T00:33:27.799Z,10.80
2022-10-21T00:36:02.517Z,10.33
2022-10-21T00:38:31.402Z,14.17
2022-10-21T00:40:59.802Z,11.10
2022-10-21T00:43:30.019Z,10.97
2022-10-21T00:46:01.290Z,11.03
2022-10-21T00:48:34.115Z,9.17
2022-10-21T00:51:07.123Z,7.73
2022-10-21T00:53:36.406Z,9.50
2022-10-21T00:56:12.846Z,11.13
2022-10-21T00:58:48.162Z,6.63
2022-10-21T01:01:19.386Z,8.10
2022-10-21T01:03:49.588Z,9.20
2022-10-21T01:06:19.934Z,10.43
2022-10-21T01:08:48.046Z,9.67
2022-10-21T01:11:18.865Z,9.17
2022-10-21T01:14:04.227Z,7.97
2022-10-21T01:16:43.115Z,10.87
2022-10-21T01:19:42.262Z,9.03
2022-10-21T01:22:26.607Z,11.93
2022-10-21T01:25:25.321Z,9.27
2022-10-21T01:28:00.084Z,12.03
2022-10-21T01:30:39.328Z,9.03
2022-10-21T01:33:25.984Z,9.73
2022-10-21T01:35:59.842Z,9.10
2022-10-21T01:38:34.503Z,11.33
2022-10-21T01:41:08.927Z,8.93
2022-10-21T01:43:42.808Z,7.93
2022-10-21T01:46:17.587Z,13.77
2022-10-21T01:48:52.035Z,10.40
2022-10-21T01:51:21.655Z,12.93
2022-10-21T01:53:55.688Z,10.37
2022-10-21T01:56:24.928Z,12.50
2022-10-21T01:58:54.595Z,9.47
2022-10-21T02:01:25.339Z,9.10
2022-10-21T02:03:59.171Z,14.37
2022-10-21T02:06:27.191Z,8.70
2022-10-21T02:08:55.192Z,10.40
2022-10-21T02:11:23.307Z,9.13
2022-10-21T02:13:57.326Z,9.73
2022-10-21T02:16:30.739Z,8.93
2022-10-21T02:19:00.766Z,9.87
2022-10-21T02:21:32.491Z,13.53
2022-10-21T02:24:06.108Z,8.37
2022-10-21T02:26:34.107Z,13.50
2022-10-21T02:29:02.168Z,10.33
2022-10-21T02:31:43.571Z,12.27
2022-10-21T02:34:21.450Z,10.43
2022-10-21T02:36:57.033Z,10.50
2022-10-21T02:39:33.465Z,14.93
2022-10-21T02:42:03.551Z,10.27
2022-10-21T02:44:31.855Z,10.63
2022-10-21T02:47:01.286Z,13.53
2022-10-21T02:49:29.270Z,11.47
2022-10-21T02:51:57.451Z,11.23
2022-10-21T02:54:25.405Z,11.90
2022-10-21T02:56:53.431Z,11.70
2022-10-21T02:59:21.397Z,14.73
2022-10-21T03:01:49.379Z,11.50
2022-10-21T03:04:18.683Z,11.27
2022-10-21T03:06:46.651Z,10.37
2022-10-21T03:09:14.625Z,10.50
2022-10-21T03:11:42.626Z,13.90
2022-10-21T03:14:10.601Z,9.80
2022-10-21T03:16:38.597Z,11.23
2022-10-21T03:19:06.610Z,10.93
2022-10-21T03:21:35.924Z,10.47
2022-10-21T03:24:10.903Z,12.03
2022-10-21T03:26:47.729Z,11.47
2022-10-21T03:29:15.770Z,9.83
2022-10-21T03:31:43.781Z,11.47
2022-10-21T03:34:11.776Z,12.00
2022-10-21T03:36:41.104Z,15.43
2022-10-21T03:39:09.119Z,10.00
2022-10-21T03:41:37.081Z,10.90
2022-10-21T03:44:05.391Z,11.70
2022-10-21T03:46:33.364Z,14.40
2022-10-21T03:49:04.609Z,13.60
2022-10-21T03:51:34.770Z,13.57
2022-10-21T03:54:04.211Z,11.87
2022-10-21T03:56:32.194Z,11.13
2022-10-21T03:59:00.173Z,12.03
2022-10-21T04:01:28.205Z,15.30
2022-10-21T04:03:56.234Z,15.30
2022-10-21T04:06:24.281Z,13.57
2022-10-21T04:08:53.557Z,15.20
2022-10-21T04:11:22.896Z,13.20
2022-10-21T04:13:50.914Z,10.97
2022-10-21T04:16:21.489Z,11.67
2022-10-21T04:18:49.560Z,9.77
2022-10-21T04:21:17.541Z,11.00
2022-10-21T04:23:45.541Z,11.73
2022-10-21T04:26:13.764Z,10.47
2022-10-21T04:28:43.131Z,12.03
2022-10-21T04:31:11.115Z,11.10
2022-10-21T04:33:39.048Z,11.43
2022-10-21T04:36:07.791Z,13.13
2022-10-21T04:38:35.728Z,13.67
2022-10-21T04:41:04.337Z,11.50
2022-10-21T04:43:32.839Z,13.53
2022-10-21T04:46:02.179Z,12.93
2022-10-21T04:48:30.218Z,15.67
2022-10-21T04:50:58.210Z,14.37
2022-10-21T04:53:26.168Z,12.20
2022-10-21T04:55:54.754Z,14.03
2022-10-21T04:58:23.326Z,12.80
2022-10-21T05:00:52.148Z,13.67
2022-10-21T05:03:21.820Z,9.13
2022-10-21T05:05:50.855Z,10.40
2022-10-21T05:08:19.020Z,9.47
2022-10-21T05:10:47.180Z,9.87
2022-10-21T05:13:15.772Z,8.83
2022-10-21T05:15:43.743Z,10.67
2022-10-21T05:18:11.756Z,9.03
2022-10-21T05:20:41.086Z,9.77
2022-10-21T05:23:09.148Z,11.77
2022-10-21T05:25:37.115Z,9.43
2022-10-21T05:28:05.368Z,10.50
2022-10-21T05:30:33.462Z,12.07
2022-10-21T05:33:01.451Z,7.77
2022-10-21T05:35:29.446Z,10.07
2022-10-21T05:37:58.786Z,13.33
2022-10-21T05:40:26.762Z,10.53
2022-10-21T05:42:54.690Z,11.67
2022-10-21T05:45:22.753Z,14.23
2022-10-21T05:47:50.729Z,11.57
2022-10-21T05:50:18.824Z,14.97
2022-10-21T05:52:46.760Z,13.10
2022-10-21T05:55:16.232Z,12.67
2022-10-21T05:57:44.303Z,8.63
2022-10-21T06:00:14.332Z,10.73
2022-10-21T06:02:42.415Z,13.53
2022-10-21T06:05:10.552Z,11.27
2022-10-21T06:07:38.737Z,10.27
2022-10-21T06:10:07.731Z,11.07
2022-10-21T06:12:37.107Z,9.40
2022-10-21T06:15:05.719Z,13.70
2022-10-21T06:17:33.700Z,10.30
2022-10-21T06:20:02.393Z,12.30
2022-10-21T06:22:30.653Z,14.77
2022-10-21T06:24:58.614Z,14.43
2022-10-21T06:27:26.811Z,11.00
2022-10-21T06:29:56.307Z,10.80
2022-10-21T06:32:24.889Z,14.93
2022-10-21T06:34:52.899Z,10.03
2022-10-21T06:37:20.865Z,12.27
2022-10-21T06:39:48.855Z,10.47
2022-10-21T06:42:17.431Z,12.20
2022-10-21T06:44:45.544Z,12.97
2022-10-21T06:47:15.808Z,11.60
2022-10-21T06:49:43.874Z,10.33
2022-10-21T06:52:11.988Z,12.80
2022-10-21T06:54:40.286Z,11.43
2022-10-21T06:57:08.887Z,11.80
2022-10-21T06:59:36.909Z,9.50
2022-10-21T07:02:05.023Z,13.13
2022-10-21T07:04:34.377Z,12.97
2022-10-21T07:07:02.362Z,13.47
2022-10-21T07:09:30.759Z,13.70
2022-10-21T07:11:58.810Z,12.97
2022-10-21T07:14:26.780Z,12.67
2022-10-21T07:16:54.917Z,16.10
2022-10-21T07:19:24.943Z,10.67
2022-10-21T07:21:54.280Z,11.03
2022-10-21T07:24:22.832Z,13.60
2022-10-21T07:26:51.603Z,11.90
2022-10-21T07:29:19.806Z,9.83
2022-10-21T07:31:47.981Z,11.93
2022-10-21T07:34:16.631Z,14.00
2022-10-21T07:36:47.949Z,10.87
2022-10-21T07:39:18.832Z,14.03
2022-10-21T07:41:49.177Z,12.33
2022-10-21T07:44:18.594Z,10.73
2022-10-21T07:46:47.144Z,10.70
2022-10-21T07:49:17.045Z,9.83
2022-10-21T07:51:46.236Z,9.57
2022-10-21T07:54:15.403Z,10.17
2022-10-21T07:56:47.009Z,11.53
2022-10-21T07:59:16.885Z,10.13
2022-10-21T08:04:18.378Z,10.07
2022-10-21T08:06:47.880Z,17.37
2022-10-21T08:09:16.966Z,10.87
2022-10-21T08:11:46.873Z,29.17
2022-10-21T08:14:15.784Z,14.90
2022-10-21T08:16:43.887Z,12.07
2022-10-21T08:19:19.308Z,12.90
2022-10-21T08:21:47.505Z,7.70
2022-10-21T08:24:15.647Z,13.50
2022-10-21T08:26:43.707Z,13.23
2022-10-21T08:29:13.077Z,11.40
2022-10-21T08:31:41.222Z,11.40
2022-10-21T08:34:09.262Z,10.20
2022-10-21T08:36:38.688Z,10.97
2022-10-21T08:39:07.613Z,10.63
2022-10-21T08:41:57.044Z,8.07
2022-10-21T08:44:32.728Z,10.40
2022-10-21T08:49:46.629Z,8.07
2022-10-21T08:52:17.442Z,8.43
2022-10-21T08:54:48.733Z,10.97
2022-10-21T08:57:17.365Z,8.77
2022-10-21T08:59:47.448Z,10.30
2022-10-21T09:02:41.298Z,10.10
2022-10-21T09:08:07.151Z,18.70
2022-10-21T09:10:46.351Z,14.93
2022-10-21T09:13:21.610Z,11.00
2022-10-21T09:16:02.173Z,10.43
2022-10-21T09:20:25.174Z,7.57
2022-10-21T09:21:51.933Z,9.47
2022-10-21T09:24:26.562Z,11.30
2022-10-21T09:26:56.501Z,11.80
2022-10-21T09:29:32.372Z,11.03
2022-10-21T09:32:15.130Z,10.60
2022-10-21T09:34:50.306Z,7.33
2022-10-21T09:37:26.099Z,10.47
2022-10-21T09:40:02.628Z,9.70
2022-10-21T09:42:46.222Z,9.97
2022-10-21T09:45:23.185Z,14.13
2022-10-21T09:47:57.452Z,7.37
2022-10-21T09:50:26.781Z,9.03
2022-10-21T09:53:01.492Z,8.03
2022-10-21T09:55:31.534Z,9.33
2022-10-21T09:58:00.958Z,7.80
2022-10-21T10:00:47.524Z,9.57
2022-10-21T10:03:31.041Z,8.07
2022-10-21T10:05:59.123Z,7.77
2022-10-21T10:08:33.304Z,9.83
2022-10-21T10:11:21.583Z,8.50
2022-10-21T10:13:51.254Z,8.57
2022-10-21T10:16:27.269Z,9.07
2022-10-21T10:19:15.999Z,10.73
2022-10-21T10:21:44.646Z,8.13
2022-10-21T10:24:19.230Z,11.20
2022-10-21T10:26:48.186Z,10.27
2022-10-21T10:29:25.710Z,8.70
2022-10-21T10:31:56.411Z,9.47
2022-10-21T10:34:31.019Z,8.33
2022-10-21T10:37:04.130Z,8.53
2022-10-21T10:39:34.915Z,8.63
2022-10-21T10:42:06.777Z,10.67
2022-10-21T10:44:41.808Z,7.00
2022-10-21T10:47:19.749Z,9.70
2022-10-21T10:49:49.906Z,10.67
2022-10-21T10:52:22.339Z,8.67
2022-10-21T10:55:15.906Z,8.80
2022-10-21T10:57:58.825Z,12.33
2022-10-21T11:00:41.913Z,8.53
2022-10-21T11:03:14.442Z,10.20
2022-10-21T11:05:47.247Z,9.93
2022-10-21T11:08:18.200Z,6.93
2022-10-21T11:10:49.788Z,8.87
2022-10-21T11:13:19.830Z,8.73
2022-10-21T11:16:02.287Z,6.67
2022-10-21T11:18:35.976Z,6.40
2022-10-21T11:21:20.311Z,7.57
2022-10-21T11:24:12.613Z,9.53
2022-10-21T11:26:51.049Z,7.03
2022-10-21T11:29:31.921Z,8.57
2022-10-21T11:32:11.995Z,10.20
2022-10-21T11:34:52.531Z,6.13
2022-10-21T11:37:33.591Z,10.10
2022-10-21T11:40:11.791Z,10.37
2022-10-21T11:42:43.722Z,10.47
2022-10-21T11:45:32.038Z,6.03
2022-10-21T11:48:08.135Z,11.47
2022-10-21T11:50:43.384Z,12.20
2022-10-21T11:53:27.434Z,5.77
2022-10-21T11:56:04.040Z,6.30
2022-10-21T11:58:42.841Z,6.90
2022-10-21T12:01:36.854Z,8.83
2022-10-21T12:04:34.418Z,5.97
2022-10-21T12:07:16.587Z,7.73
2022-10-21T12:09:52.357Z,8.70
2022-10-21T12:12:24.708Z,8.80
2022-10-21T12:14:57.833Z,7.57
2022-10-21T12:17:26.606Z,6.73
2022-10-21T12:19:58.351Z,7.60
2022-10-21T12:22:28.271Z,6.27
2022-10-21T12:25:06.634Z,5.90
2022-10-21T12:27:41.129Z,7.93
2022-10-21T12:30:15.361Z,6.67
2022-10-21T12:32:54.131Z,9.37
2022-10-21T12:35:28.782Z,7.50
2022-10-21T12:38:21.843Z,6.73
2022-10-21T12:40:52.468Z,7.77
2022-10-21T12:43:27.197Z,8.73
2022-10-21T12:46:10.093Z,7.63
2022-10-21T12:48:41.038Z,7.73
2022-10-21T12:51:19.797Z,10.53
2022-10-21T12:56:37.763Z,14.13
2022-10-21T12:59:07.611Z,10.90
2022-10-21T13:01:42.857Z,7.73
2022-10-21T13:04:45.599Z,7.43
2022-10-21T13:07:38.244Z,8.30
2022-10-21T13:10:33.039Z,9.20
2022-10-21T13:13:35.453Z,10.70
2022-10-21T13:16:06.625Z,6.73
2022-10-21T13:18:58.338Z,7.80
2022-10-21T13:21:39.188Z,10.07
2022-10-21T13:24:21.052Z,9.63
2022-10-21T13:26:51.907Z,7.03
2022-10-21T13:29:47.784Z,9.40
2022-10-21T13:32:29.245Z,6.07
2022-10-21T13:35:20.158Z,11.47
2022-10-21T13:37:55.906Z,10.30
2022-10-21T13:40:28.895Z,10.67
2022-10-21T13:43:00.963Z,6.80
2022-10-21T13:45:32.678Z,8.70
2022-10-21T13:48:06.223Z,10.67
2022-10-21T13:50:38.675Z,5.67
2022-10-21T13:53:22.936Z,10.77
2022-10-21T13:56:00.030Z,8.80
2022-10-21T13:58:31.218Z,11.90
2022-10-21T14:01:08.777Z,27.80
2022-10-21T14:03:37.172Z,11.63
2022-10-21T14:06:08.372Z,11.17
2022-10-21T14:08:41.936Z,9.10
2022-10-21T14:11:16.563Z,8.53
2022-10-21T14:13:45.044Z,8.27
2022-10-21T14:16:22.126Z,9.77
2022-10-21T14:18:50.770Z,8.17
2022-10-21T14:21:22.701Z,9.00
2022-10-21T14:23:51.454Z,10.10
2022-10-21T14:26:20.570Z,10.07
2022-10-21T14:28:50.078Z,7.60
2022-10-21T14:31:20.273Z,10.97
2022-10-21T14:33:49.719Z,13.93
2022-10-21T14:36:20.563Z,12.57
2022-10-21T14:38:58.835Z,11.90
2022-10-21T14:41:30.379Z,10.97
2022-10-21T14:44:05.300Z,12.83
2022-10-21T14:46:42.132Z,9.87
2022-10-21T14:49:22.091Z,10.63
2022-10-21T14:51:50.639Z,9.53
2022-10-21T14:54:27.651Z,12.83
2022-10-21T14:56:55.921Z,9.80
2022-10-21T14:59:26.063Z,11.93
2022-10-21T15:01:55.993Z,9.93
2022-10-21T15:04:50.333Z,11.93
2022-10-21T15:10:15.033Z,10.40
2022-10-21T15:12:44.987Z,12.60
2022-10-21T15:15:48.349Z,13.57
2022-10-21T15:18:25.786Z,11.87
2022-10-21T15:20:57.389Z,56.63
2022-10-21T15:23:28.946Z,36.13
2022-10-21T15:26:00.658Z,27.40
2022-10-21T15:28:31.960Z,17.60
2022-10-21T15:31:00.648Z,18.37
2022-10-21T15:33:30.551Z,18.60
2022-10-21T15:36:02.465Z,20.00
2022-10-21T15:38:30.611Z,16.93
2022-10-21T15:40:58.771Z,17.63
2022-10-21T15:43:26.853Z,20.80
2022-10-21T15:45:55.199Z,20.07
2022-10-21T15:48:24.188Z,22.70
2022-10-21T15:50:57.160Z,17.17
2022-10-21T15:53:25.221Z,20.03
2022-10-21T15:55:53.804Z,19.90
2022-10-21T15:58:21.839Z,23.50
2022-10-21T16:00:49.897Z,19.60
2022-10-21T16:03:17.934Z,21.97
2022-10-21T16:05:46.033Z,22.47
2022-10-21T16:08:15.660Z,22.93
2022-10-21T16:10:47.682Z,22.53
2022-10-21T16:13:15.853Z,24.93
2022-10-21T16:15:44.008Z,22.20
2022-10-21T16:18:13.835Z,22.67
2022-10-21T16:20:43.631Z,26.73
2022-10-21T16:23:12.238Z,29.93
2022-10-21T16:25:41.652Z,25.17
2022-10-21T16:28:13.166Z,25.10
2022-10-21T16:30:41.883Z,32.63
2022-10-21T16:33:11.167Z,27.83
2022-10-21T16:35:39.296Z,28.53
2022-10-21T16:38:07.418Z,25.20
2022-10-21T16:40:36.616Z,27.67
2022-10-21T16:43:06.174Z,28.27
2022-10-21T16:45:34.492Z,24.10
2022-10-21T16:48:05.413Z,27.47
2022-10-21T16:50:39.396Z,24.40
2022-10-21T16:53:08.042Z,26.67
2022-10-21T16:55:36.119Z,25.43
2022-10-21T16:58:05.602Z,27.63
2022-10-21T17:00:34.165Z,25.53
2022-10-21T17:03:02.658Z,21.37
2022-10-21T17:05:30.781Z,24.60
2022-10-21T17:08:00.022Z,24.20
2022-10-21T17:10:28.187Z,21.13
2022-10-21T17:12:58.894Z,19.07
2022-10-21T17:15:29.479Z,19.73
2022-10-21T17:17:57.521Z,19.23
2022-10-21T17:20:30.218Z,20.47
2022-10-21T17:22:58.743Z,20.83
2022-10-21T17:25:29.826Z,20.97
2022-10-21T17:27:58.478Z,20.43
2022-10-21T17:30:29.733Z,21.00
2022-10-21T17:32:58.342Z,21.47
2022-10-21T17:35:26.428Z,20.80
2022-10-21T17:37:54.828Z,16.77
2022-10-21T17:40:25.682Z,19.33
2022-10-21T17:42:54.144Z,19.13
2022-10-21T17:45:23.334Z,22.57
2022-10-21T17:47:53.725Z,22.70
2022-10-21T17:50:24.341Z,18.57
2022-10-21T17:52:55.084Z,18.83
2022-10-21T17:55:23.147Z,17.03
2022-10-21T17:57:51.272Z,16.83
2022-10-21T18:00:19.363Z,19.63
2022-10-21T18:02:47.434Z,19.73
2022-10-21T18:05:16.938Z,18.83
2022-10-21T18:07:45.241Z,18.53
2022-10-21T18:10:13.275Z,19.90
2022-10-21T18:12:41.730Z,17.27
2022-10-21T18:15:10.390Z,18.63
2022-10-21T18:17:40.120Z,18.70
2022-10-21T18:20:09.860Z,20.53
2022-10-21T18:22:39.530Z,21.83
2022-10-21T18:25:08.680Z,19.57
2022-10-21T18:27:37.300Z,20.53
2022-10-21T18:30:06.125Z,26.13
2022-10-21T18:32:34.571Z,19.83
2022-10-21T18:35:02.657Z,23.93
2022-10-21T18:37:31.511Z,17.37
2022-10-21T18:40:00.911Z,19.43
2022-10-21T18:42:29.470Z,19.13
2022-10-21T18:44:57.524Z,20.03
2022-10-21T18:47:28.030Z,20.53
2022-10-21T18:50:29.610Z,18.63
2022-10-21T18:56:42.037Z,16.20
2022-10-21T18:59:27.934Z,18.40
2022-10-21T19:02:05.293Z,16.93
2022-10-21T19:04:33.551Z,18.53
2022-10-21T19:07:01.779Z,17.60
2022-10-21T19:09:32.981Z,16.87
2022-10-21T19:12:11.992Z,21.00
2022-10-21T19:14:45.476Z,18.80
2022-10-21T19:17:13.416Z,22.17
2022-10-21T19:19:41.423Z,20.47
2022-10-21T19:22:09.403Z,17.87
2022-10-21T19:24:37.553Z,17.53
2022-10-21T19:27:07.041Z,22.27
2022-10-21T19:29:35.288Z,25.37
2022-10-21T19:32:03.287Z,21.37
2022-10-21T19:34:31.290Z,19.03
2022-10-21T19:36:59.250Z,16.63
2022-10-21T19:39:27.250Z,19.50
2022-10-21T19:41:55.233Z,16.63
2022-10-21T19:44:24.558Z,16.87
2022-10-21T19:46:52.548Z,14.33
2022-10-21T19:49:20.571Z,16.27
2022-10-21T19:51:48.537Z,17.13
2022-10-21T19:54:16.590Z,14.43
2022-10-21T19:56:44.528Z,19.20
2022-10-21T19:59:12.622Z,18.10
2022-10-21T20:01:42.101Z,18.10
2022-10-21T20:04:10.206Z,18.87
2022-10-21T20:06:39.323Z,18.83
2022-10-21T20:09:10.105Z,15.73
2022-10-21T20:11:38.983Z,16.40
2022-10-21T20:14:07.838Z,20.17
2022-10-21T20:16:38.219Z,15.63
2022-10-21T20:19:08.460Z,20.10
2022-10-21T20:21:37.567Z,17.00
2022-10-21T20:24:06.390Z,15.80
2022-10-21T20:26:34.455Z,18.37
2022-10-21T20:29:02.900Z,15.47
2022-10-21T20:31:31.017Z,17.73
2022-10-21T20:33:59.000Z,17.87
2022-10-21T20:36:30.617Z,16.70
2022-10-21T20:38:59.992Z,14.63
2022-10-21T20:41:33.435Z,15.43
2022-10-21T20:44:02.674Z,17.17
2022-10-21T20:46:34.712Z,15.67
2022-10-21T20:49:04.075Z,16.87
2022-10-21T20:51:34.206Z,18.00
2022-10-21T20:54:03.606Z,16.80
2022-10-21T20:56:33.661Z,17.67
2022-10-21T20:59:01.970Z,15.17
2022-10-21T21:01:32.134Z,14.73
2022-10-21T21:04:01.901Z,17.87
2022-10-21T21:06:30.330Z,13.27
2022-10-21T21:09:29.040Z,16.97
2022-10-21T21:11:47.963Z,14.23
2022-10-21T21:14:16.212Z,15.57
2022-10-21T21:16:44.233Z,14.83
2022-10-21T21:19:14.367Z,18.47
2022-10-21T21:21:42.410Z,14.97
2022-10-21T21:24:11.776Z,15.67
2022-10-21T21:26:41.388Z,14.53
2022-10-21T21:29:10.604Z,14.93
2022-10-21T21:31:39.856Z,15.60
2022-10-21T21:34:08.556Z,16.13
2022-10-21T21:36:37.709Z,18.40
2022-10-21T21:39:06.501Z,16.03
2022-10-21T21:41:36.550Z,14.73
2022-10-21T21:44:05.630Z,18.30
2022-10-21T21:46:33.627Z,17.37
2022-10-21T21:49:05.447Z,15.03
2022-10-21T21:51:35.399Z,16.10
2022-10-21T21:54:04.618Z,13.37
2022-10-21T21:56:32.643Z,14.73
2022-10-21T21:59:02.735Z,13.17
2022-10-21T22:01:31.096Z,15.10
2022-10-21T22:04:00.665Z,14.20
2022-10-21T22:06:30.492Z,15.87
2022-10-21T22:08:59.249Z,16.80
2022-10-21T22:11:30.299Z,15.73
2022-10-21T22:13:58.666Z,14.30
2022-10-21T22:16:30.296Z,16.87
2022-10-21T22:19:00.353Z,16.23
2022-10-21T22:21:28.680Z,14.70
2022-10-21T22:23:56.699Z,15.83
2022-10-21T22:26:26.801Z,16.07
2022-10-21T22:28:55.485Z,14.47
2022-10-21T22:31:29.134Z,15.87
2022-10-21T22:34:01.259Z,17.20
2022-10-21T22:36:29.440Z,14.33
2022-10-21T22:38:57.491Z,16.47
2022-10-21T22:41:25.527Z,16.67
2022-10-21T22:43:53.512Z,16.87
2022-10-21T22:46:32.849Z,16.17
2022-10-21T22:49:03.960Z,15.70
2022-10-21T22:51:32.603Z,18.00
2022-10-21T22:54:01.249Z,14.70
2022-10-21T22:56:29.566Z,15.03
2022-10-21T22:58:58.171Z,18.87
2022-10-21T23:01:30.018Z,16.00
2022-10-21T23:03:58.310Z,16.53
2022-10-21T23:06:27.715Z,17.13
2022-10-21T23:08:55.762Z,14.87
2022-10-21T23:11:23.855Z,15.50
2022-10-21T23:14:02.915Z,13.83
2022-10-21T23:16:32.107Z,16.43
2022-10-21T23:19:00.483Z,15.27
2022-10-21T23:21:30.279Z,17.70
2022-10-21T23:23:58.312Z,17.77
2022-10-21T23:26:26.769Z,16.90
2022-10-21T23:28:54.755Z,16.13
2022-10-21T23:31:22.686Z,17.43
2022-10-21T23:33:50.721Z,16.40
2022-10-21T23:36:18.784Z,18.23
2022-10-21T23:38:48.177Z,18.07
2022-10-21T23:41:16.159Z,16.20
2022-10-21T23:43:44.140Z,16.77
2022-10-21T23:46:12.192Z,18.60
2022-10-21T23:48:40.171Z,18.57
2022-10-21T23:51:08.116Z,18.23
2022-10-21T23:53:36.103Z,16.50
2022-10-21T23:56:06.160Z,15.70
2022-10-21T23:58:34.190Z,18.17
